地図

経路データ

SID SEASON NUMBER BASIN SUBBASIN NAME ISO_TIME NATURE LAT LON WMO_WIND WMO_PRES WMO_AGENCY TRACK_TYPE DIST2LAND LANDFALL IFLAG USA_AGENCY USA_ATCF_ID USA_LAT USA_LON USA_RECORD USA_STATUS USA_WIND USA_PRES USA_SSHS USA_R34_NE USA_R34_SE USA_R34_SW USA_R34_NW USA_R50_NE USA_R50_SE USA_R50_SW USA_R50_NW USA_R64_NE USA_R64_SE USA_R64_SW USA_R64_NW USA_POCI USA_ROCI USA_RMW USA_EYE TOKYO_LAT TOKYO_LON TOKYO_GRADE TOKYO_WIND TOKYO_PRES TOKYO_R50_DIR TOKYO_R50_LONG TOKYO_R50_SHORT TOKYO_R30_DIR TOKYO_R30_LONG TOKYO_R30_SHORT TOKYO_LAND CMA_LAT CMA_LON CMA_CAT CMA_WIND CMA_PRES HKO_LAT HKO_LON HKO_CAT HKO_WIND HKO_PRES NEWDELHI_LAT NEWDELHI_LON NEWDELHI_GRADE NEWDELHI_WIND NEWDELHI_PRES NEWDELHI_CI NEWDELHI_DP NEWDELHI_POCI REUNION_LAT REUNION_LON REUNION_TYPE REUNION_WIND REUNION_PRES REUNION_TNUM REUNION_CI REUNION_RMW REUNION_R34_NE REUNION_R34_SE REUNION_R34_SW REUNION_R34_NW REUNION_R50_NE REUNION_R50_SE REUNION_R50_SW REUNION_R50_NW REUNION_R64_NE REUNION_R64_SE REUNION_R64_SW REUNION_R64_NW BOM_LAT BOM_LON BOM_TYPE BOM_WIND BOM_PRES BOM_TNUM BOM_CI BOM_RMW BOM_R34_NE BOM_R34_SE BOM_R34_SW BOM_R34_NW BOM_R50_NE BOM_R50_SE BOM_R50_SW BOM_R50_NW BOM_R64_NE BOM_R64_SE BOM_R64_SW BOM_R64_NW BOM_ROCI BOM_POCI BOM_EYE BOM_POS_METHOD BOM_PRES_METHOD NADI_LAT NADI_LON NADI_CAT NADI_WIND NADI_PRES WELLINGTON_LAT WELLINGTON_LON WELLINGTON_WIND WELLINGTON_PRES DS824_LAT DS824_LON DS824_STAGE DS824_WIND DS824_PRES TD9636_LAT TD9636_LON TD9636_STAGE TD9636_WIND TD9636_PRES TD9635_LAT TD9635_LON TD9635_WIND TD9635_PRES TD9635_ROCI NEUMANN_LAT NEUMANN_LON NEUMANN_CLASS NEUMANN_WIND NEUMANN_PRES MLC_LAT MLC_LON MLC_CLASS MLC_WIND MLC_PRES USA_GUST BOM_GUST BOM_GUST_PER REUNION_GUST REUNION_GUST_PER USA_SEAHGT USA_SEARAD_NE USA_SEARAD_SE USA_SEARAD_SW USA_SEARAD_NW STORM_SPEED STORM_DIR
1882001S16080 1882 1 SI MM NOT_NAMED 1882-01-01 06:00:00 NR -15.8000 79.7000 reunion main 2367 2367 _____O________ -1 -15.8000 79.7000 99 9.90000 0 0
1882001S16080 1882 1 SI MM NOT_NAMED 1882-01-01 09:00:00 NR -15.7819 79.7156 main 2367 2367 _____P________ -1 -15.7819 79.7156 99 0 0
1882001S16080 1882 1 SI MM NOT_NAMED 1882-01-01 12:00:00 NR -15.7738 79.7202 main 2367 2367 _____P________ -1 -15.7738 79.7202 99 0 0
1882001S16080 1882 1 SI MM NOT_NAMED 1882-01-01 15:00:00 NR -15.7860 79.7028 main 2367 2367 _____P________ -1 -15.7860 79.7028 99 1 232
1882001S16080 1882 1 SI MM NOT_NAMED 1882-01-01 18:00:00 NR -15.8283 79.6526 main 2367 2354 _____P________ -1 -15.8283 79.6526 99 2 228
1882001S16080 1882 1 SI MM NOT_NAMED 1882-01-01 21:00:00 NR -15.9109 79.5584 main 2354 2330 _____P________ -1 -15.9109 79.5584 99 3 228
1882001S16080 1882 1 SI MM NOT_NAMED 1882-01-02 00:00:00 NR -16.0437 79.4091 main 2330 2304 _____P________ -1 -16.0437 79.4091 99 5 227
1882001S16080 1882 1 SI MM NOT_NAMED 1882-01-02 03:00:00 NR -16.2368 79.1935 main 2304 2264 _____P________ -1 -16.2368 79.1935 99 7 227
1882001S16080 1882 1 SI MM NOT_NAMED 1882-01-02 06:00:00 NR -16.5000 78.9000 reunion main 2264 2215 _____O________ -1 -16.5000 78.9000 99 9.90000 9 227
1882001S16080 1882 1 SI MM NOT_NAMED 1882-01-02 09:00:00 NR -16.8396 78.5220 main 2215 2164 _____P________ -1 -16.8396 78.5220 99 11 227
1882001S16080 1882 1 SI MM NOT_NAMED 1882-01-02 12:00:00 NR -17.2476 78.0736 main 2164 2100 _____P________ -1 -17.2476 78.0736 99 13 226
1882001S16080 1882 1 SI MM NOT_NAMED 1882-01-02 15:00:00 NR -17.7125 77.5739 main 2100 2038 _____P________ -1 -17.7125 77.5739 99 14 225
1882001S16080 1882 1 SI MM NOT_NAMED 1882-01-02 18:00:00 NR -18.2230 77.0426 main 2028 1967 _____P________ -1 -18.2230 77.0426 99 15 224
1882001S16080 1882 1 SI MM NOT_NAMED 1882-01-02 21:00:00 NR -18.7678 76.4993 main 1965 1906 _____P________ -1 -18.7678 76.4993 99 15 223
1882001S16080 1882 1 SI MM NOT_NAMED 1882-01-03 00:00:00 NR -19.3360 75.9641 main 1906 1847 _____P________ -1 -19.3360 75.9641 99 15 221
1882001S16080 1882 1 SI MM NOT_NAMED 1882-01-03 03:00:00 NR -19.9169 75.4574 main 1847 1791 _____P________ -1 -19.9169 75.4574 99 15 218
1882001S16080 1882 1 SI MM NOT_NAMED 1882-01-03 06:00:00 NR -20.5000 75.0000 reunion main 1791 1759 _____O________ -1 -20.5000 75.0000 99 9.90000 14 214
1882001S16080 1882 1 SI MM NOT_NAMED 1882-01-03 09:00:00 NR -21.0434 74.6379 main 1748 1718 _____P________ -1 -21.0434 74.6379 99 13 210
1882001S16080 1882 1 SI MM NOT_NAMED 1882-01-03 12:00:00 NR -21.5986 74.3149 main 1718 1690 _____P________ -1 -21.5986 74.3149 99 13 207
1882001S16080 1882 1 SI MM NOT_NAMED 1882-01-03 15:00:00 NR -22.1626 74.0292 main 1691 1674 _____P________ -1 -22.1626 74.0292 99 12 204
1882001S16080 1882 1 SI MM NOT_NAMED 1882-01-03 18:00:00 NR -22.7320 73.7791 main 1675 1660 _____P________ -1 -22.7320 73.7791 99 12 201
1882001S16080 1882 1 SI MM NOT_NAMED 1882-01-03 21:00:00 NR -23.3038 73.5628 main 1663 1651 _____P________ -1 -23.3038 73.5628 99 12 198
1882001S16080 1882 1 SI MM NOT_NAMED 1882-01-04 00:00:00 NR -23.8746 73.3786 main 1655 1644 _____P________ -1 -23.8746 73.3786 99 12 195
1882001S16080 1882 1 SI MM NOT_NAMED 1882-01-04 03:00:00 NR -24.4411 73.2249 main 1647 1647 _____P________ -1 -24.4411 73.2249 99 12 193
1882001S16080 1882 1 SI MM NOT_NAMED 1882-01-04 06:00:00 NR -25.0000 73.1000 reunion main 1653 1653 _____O________ -1 -25.0000 73.1000 99 9.90000 12 191
1882001S16080 1882 1 SI MM NOT_NAMED 1882-01-04 09:00:00 NR -25.5972 72.9799 main 1663 1660 _____P________ -1 -25.5972 72.9799 99 12 189
1882001S16080 1882 1 SI MM NOT_NAMED 1882-01-04 12:00:00 NR -26.1957 72.8935 main 1675 1675 _____P________ -1 -26.1957 72.8935 99 12 186
1882001S16080 1882 1 SI MM NOT_NAMED 1882-01-04 15:00:00 NR -26.7846 72.8359 main 1689 1689 _____P________ -1 -26.7846 72.8359 99 12 184
1882001S16080 1882 1 SI MM NOT_NAMED 1882-01-04 18:00:00 NR -27.3530 72.8021 main 1714 1714 _____P________ -1 -27.3530 72.8021 99 11 182
1882001S16080 1882 1 SI MM NOT_NAMED 1882-01-04 21:00:00 NR -27.8897 72.7869 main 1737 1737 _____P________ -1 -27.8897 72.7869 99 10 181
1882001S16080 1882 1 SI MM NOT_NAMED 1882-01-05 00:00:00 NR -28.3839 72.7850 main 1761 1761 _____P________ -1 -28.3839 72.7850 99 9 180
1882001S16080 1882 1 SI MM NOT_NAMED 1882-01-05 03:00:00 NR -28.8243 72.7913 main 1782 1782 _____P________ -1 -28.8243 72.7913 99 8 178
1882001S16080 1882 1 SI MM NOT_NAMED 1882-01-05 06:00:00 NR -29.2000 72.8000 reunion main 1803 1803 _____O________ -1 -29.2000 72.8000 99 9.90000 7 0
1882001S16080 1882 1 SI MM NOT_NAMED 1882-01-05 09:00:00 NR -29.5033 72.8067 main 1820 1820 _____P________ -1 -29.5033 72.8067 99 5 0
1882001S16080 1882 1 SI MM NOT_NAMED 1882-01-05 12:00:00 NR -29.7402 72.8108 main 1831 1831 _____P________ -1 -29.7402 72.8108 99 4 0
1882001S16080 1882 1 SI MM NOT_NAMED 1882-01-05 15:00:00 NR -29.9203 72.8126 main 1842 1842 _____P________ -1 -29.9203 72.8126 99 3 175
1882001S16080 1882 1 SI MM NOT_NAMED 1882-01-05 18:00:00 NR -30.0530 72.8124 main 1854 1854 _____P________ -1 -30.0530 72.8124 99 2 0
1882001S16080 1882 1 SI MM NOT_NAMED 1882-01-05 21:00:00 NR -30.1479 72.8106 main 1854 1854 _____P________ -1 -30.1479 72.8106 99 2 188
1882001S16080 1882 1 SI MM NOT_NAMED 1882-01-06 00:00:00 NR -30.2144 72.8077 main 1860 1860 _____P________ -1 -30.2144 72.8077 99 1 0
1882001S16080 1882 1 SI MM NOT_NAMED 1882-01-06 03:00:00 NR -30.2619 72.8041 main 1866 1866 _____P________ -1 -30.2619 72.8041 99 1 195
1882001S16080 1882 1 SI MM NOT_NAMED 1882-01-06 06:00:00 NR -30.3000 72.8000 reunion main 1866 _____O________ -1 -30.3000 72.8000 99 9.90000 1 196

IBTrACS Databaseについて

本データベースは、米国NOAAが公開する1842年以降の世界の熱帯低気圧のベストトラックデータアーカイブInternational Best Track Archive for Climate Stewardship (IBTrACS)を、ウェブで閲覧しやすい形式に変換したものです。

最終更新日:2021-12-03